createdAt,value
2018-06-21T00:00:31.069Z,76.90
2018-06-21T00:01:31.073Z,76.61
2018-06-21T00:02:31.075Z,77.00
2018-06-21T00:03:31.080Z,76.71
2018-06-21T00:04:31.086Z,76.61
2018-06-21T00:05:31.087Z,77.00
2018-06-21T00:06:31.089Z,76.90
2018-06-21T00:07:31.092Z,76.90
2018-06-21T00:08:31.093Z,76.90
2018-06-21T00:09:31.098Z,76.52
2018-06-21T00:10:31.100Z,75.81
2018-06-21T00:11:31.107Z,75.04
2018-06-21T00:12:31.103Z,74.65
2018-06-21T00:13:31.106Z,73.88
2018-06-21T00:14:31.110Z,74.55
2018-06-21T00:15:31.113Z,74.08
2018-06-21T00:16:31.114Z,74.08
2018-06-21T00:17:31.121Z,74.17
2018-06-21T00:18:31.172Z,73.98
2018-06-21T00:19:31.123Z,75.04
2018-06-21T00:20:31.125Z,74.17
2018-06-21T00:21:31.125Z,73.98
2018-06-21T00:22:31.128Z,74.17
2018-06-21T00:23:31.133Z,74.65
2018-06-21T00:24:31.137Z,74.75
2018-06-21T00:25:31.144Z,74.46
2018-06-21T00:26:31.139Z,74.75
2018-06-21T00:27:31.144Z,74.55
2018-06-21T00:28:31.141Z,74.65
2018-06-21T00:29:31.147Z,74.17
2018-06-21T00:30:31.149Z,73.50
2018-06-21T00:31:31.153Z,72.92
2018-06-21T00:32:31.153Z,72.64
2018-06-21T00:33:31.157Z,73.31
2018-06-21T00:34:31.156Z,72.92
2018-06-21T00:35:31.161Z,73.02
2018-06-21T00:36:31.166Z,73.21
2018-06-21T00:37:31.165Z,73.88
2018-06-21T00:38:31.187Z,73.41
2018-06-21T00:39:31.172Z,73.60
2018-06-21T00:40:31.172Z,72.06
2018-06-21T00:41:31.177Z,73.21
2018-06-21T00:42:31.177Z,73.02
2018-06-21T00:43:31.183Z,73.11
2018-06-21T00:44:31.184Z,72.92
2018-06-21T00:45:31.184Z,72.64
2018-06-21T00:46:31.188Z,73.31
2018-06-21T00:47:31.191Z,72.64
2018-06-21T00:48:31.189Z,72.83
2018-06-21T00:49:31.193Z,72.83
2018-06-21T00:50:31.196Z,72.50
2018-06-21T00:51:31.198Z,71.73
2018-06-21T00:52:31.201Z,71.64
2018-06-21T00:53:31.204Z,71.55
2018-06-21T00:54:31.207Z,70.78
2018-06-21T00:55:31.205Z,70.97
2018-06-21T00:56:31.209Z,71.73
2018-06-21T00:57:31.214Z,70.68
2018-06-21T00:58:31.218Z,71.45
2018-06-21T00:59:31.218Z,71.55
2018-06-21T01:00:31.219Z,72.50
2018-06-21T01:01:31.225Z,72.22
2018-06-21T01:02:31.222Z,70.49
2018-06-21T01:03:31.230Z,70.39
2018-06-21T01:04:31.232Z,70.01
2018-06-21T01:05:31.230Z,69.81
2018-06-21T01:06:31.233Z,69.43
2018-06-21T01:07:31.232Z,69.62
2018-06-21T01:08:31.236Z,69.05
2018-06-21T01:09:31.237Z,69.43
2018-06-21T01:10:31.243Z,69.40
2018-06-21T01:11:31.244Z,69.24
2018-06-21T01:12:31.246Z,68.66
2018-06-21T01:13:31.248Z,68.91
2018-06-21T01:14:31.249Z,70.10
2018-06-21T01:15:31.251Z,69.59
2018-06-21T01:16:31.255Z,69.34
2018-06-21T01:17:31.262Z,69.91
2018-06-21T01:18:31.259Z,70.20
2018-06-21T01:19:31.261Z,70.10
2018-06-21T01:20:31.268Z,69.53
2018-06-21T01:21:31.264Z,69.53
2018-06-21T01:22:31.266Z,69.05
2018-06-21T01:23:31.269Z,69.62
2018-06-21T01:24:31.271Z,69.91
2018-06-21T01:25:31.292Z,69.14
2018-06-21T01:26:31.275Z,68.91
2018-06-21T01:27:31.279Z,68.44
2018-06-21T01:28:31.280Z,68.24
2018-06-21T01:29:31.286Z,68.24
2018-06-21T01:30:31.283Z,68.95
2018-06-21T01:31:31.287Z,68.91
2018-06-21T01:32:31.290Z,68.95
2018-06-21T01:33:31.291Z,69.14
2018-06-21T01:34:31.292Z,69.40
2018-06-21T01:35:31.297Z,69.59
2018-06-21T01:36:31.299Z,69.78
2018-06-21T01:37:31.297Z,69.14
2018-06-21T01:38:31.303Z,70.07
2018-06-21T01:39:31.304Z,70.10
2018-06-21T01:40:31.302Z,70.45
2018-06-21T01:41:31.307Z,69.72
2018-06-21T01:42:31.312Z,70.64
2018-06-21T01:43:31.310Z,69.91
2018-06-21T01:44:31.310Z,70.58
2018-06-21T01:45:31.313Z,69.49
2018-06-21T01:46:31.314Z,68.82
2018-06-21T01:47:31.318Z,67.96
2018-06-21T01:48:31.321Z,68.05
2018-06-21T01:49:31.322Z,68.05
2018-06-21T01:50:31.323Z,67.96
2018-06-21T01:51:31.328Z,67.67
2018-06-21T01:52:31.326Z,67.47
2018-06-21T01:53:31.333Z,68.05
2018-06-21T01:54:31.333Z,67.86
2018-06-21T01:55:31.337Z,67.38
2018-06-21T01:56:31.338Z,68.44
2018-06-21T01:57:31.337Z,67.86
2018-06-21T01:58:31.339Z,67.67
2018-06-21T01:59:31.346Z,67.86
2018-06-21T02:00:31.343Z,68.44
2018-06-21T02:01:31.345Z,66.71
2018-06-21T02:02:31.348Z,66.52
2018-06-21T02:03:31.350Z,66.52
2018-06-21T02:04:31.350Z,66.29
2018-06-21T02:05:31.353Z,65.43
2018-06-21T02:06:31.356Z,65.65
2018-06-21T02:07:31.358Z,65.33
2018-06-21T02:08:31.358Z,66.23
2018-06-21T02:09:31.363Z,66.03
2018-06-21T02:10:31.362Z,66.13
2018-06-21T02:11:31.365Z,66.03
2018-06-21T02:12:31.365Z,66.33
2018-06-21T02:13:31.366Z,66.33
2018-06-21T02:14:31.372Z,67.00
2018-06-21T02:15:31.371Z,67.00
2018-06-21T02:16:31.373Z,66.13
2018-06-21T02:17:31.379Z,66.33
2018-06-21T02:18:31.377Z,65.46
2018-06-21T02:19:31.379Z,65.05
2018-06-21T02:20:31.381Z,64.85
2018-06-21T02:21:31.386Z,64.56
2018-06-21T02:22:31.384Z,65.14
2018-06-21T02:23:31.401Z,64.85
2018-06-21T02:24:31.388Z,64.85
2018-06-21T02:25:31.390Z,65.08
2018-06-21T02:26:31.393Z,65.43
2018-06-21T02:27:31.394Z,65.14
2018-06-21T02:28:31.395Z,65.14
2018-06-21T02:29:31.401Z,65.52
2018-06-21T02:30:31.399Z,64.47
2018-06-21T02:31:31.401Z,64.28
2018-06-21T02:32:31.403Z,63.70
2018-06-21T02:33:31.403Z,64.66
2018-06-21T02:34:31.405Z,64.09
2018-06-21T02:35:31.411Z,64.47
2018-06-21T02:36:31.410Z,63.99
2018-06-21T02:37:31.413Z,64.37
2018-06-21T02:38:31.469Z,64.47
2018-06-21T02:39:31.414Z,63.60
2018-06-21T02:40:31.418Z,64.18
2018-06-21T02:41:31.418Z,64.56
2018-06-21T02:42:31.421Z,64.09
2018-06-21T02:43:31.426Z,64.47
2018-06-21T02:44:31.421Z,64.37
2018-06-21T02:45:31.430Z,64.37
2018-06-21T02:46:31.427Z,64.56
2018-06-21T02:47:31.429Z,64.18
2018-06-21T02:48:31.437Z,64.66
2018-06-21T02:49:31.432Z,65.43
2018-06-21T02:50:31.435Z,64.85
2018-06-21T02:51:31.437Z,65.27
2018-06-21T02:52:31.436Z,64.56
2018-06-21T02:53:31.438Z,65.08
2018-06-21T02:54:31.436Z,65.62
2018-06-21T02:55:31.442Z,64.98
2018-06-21T02:56:31.451Z,64.76
2018-06-21T02:57:31.448Z,64.37
2018-06-21T02:58:31.483Z,64.47
2018-06-21T02:59:31.450Z,65.43
2018-06-21T03:00:31.451Z,65.08
2018-06-21T03:01:31.453Z,65.27
2018-06-21T03:02:31.472Z,65.27
2018-06-21T03:03:31.460Z,64.66
2018-06-21T03:04:31.461Z,64.47
2018-06-21T03:05:31.459Z,64.79
2018-06-21T03:06:31.461Z,64.28
2018-06-21T03:07:31.461Z,64.28
2018-06-21T03:08:31.466Z,64.37
2018-06-21T03:09:31.465Z,64.28
2018-06-21T03:10:31.468Z,64.37
2018-06-21T03:11:31.477Z,64.66
2018-06-21T03:12:31.470Z,64.18
2018-06-21T03:13:31.472Z,64.18
2018-06-21T03:14:31.477Z,64.76
2018-06-21T03:15:31.486Z,64.59
2018-06-21T03:16:31.476Z,64.79
2018-06-21T03:17:31.479Z,64.79
2018-06-21T03:18:31.479Z,65.17
2018-06-21T03:19:31.494Z,64.40
2018-06-21T03:20:31.484Z,65.17
2018-06-21T03:21:31.485Z,65.56
2018-06-21T03:22:31.488Z,65.46
2018-06-21T03:23:31.489Z,65.75
2018-06-21T03:24:31.489Z,66.03
2018-06-21T03:25:31.495Z,65.97
2018-06-21T03:26:31.493Z,66.55
2018-06-21T03:27:31.496Z,67.61
2018-06-21T03:28:31.491Z,69.08
2018-06-21T03:29:31.499Z,71.52
2018-06-21T03:30:31.502Z,73.67
2018-06-21T03:31:31.503Z,74.73
2018-06-21T03:32:31.504Z,75.92
2018-06-21T03:33:31.506Z,77.08
2018-06-21T03:34:31.509Z,78.61
2018-06-21T03:35:31.510Z,79.43
2018-06-21T03:36:31.511Z,79.90
2018-06-21T03:37:31.517Z,80.62
2018-06-21T03:38:31.515Z,81.20
2018-06-21T03:39:31.517Z,81.48
2018-06-21T03:40:31.515Z,82.01
2018-06-21T03:41:31.520Z,82.59
2018-06-21T03:42:31.523Z,83.88
2018-06-21T03:43:31.526Z,84.50
2018-06-21T03:44:31.527Z,85.89
2018-06-21T03:45:31.529Z,86.38
2018-06-21T03:46:31.531Z,87.19
2018-06-21T03:47:31.536Z,87.52
2018-06-21T03:48:31.535Z,87.47
2018-06-21T03:49:31.538Z,88.39
2018-06-21T03:50:31.540Z,88.53
2018-06-21T03:51:31.542Z,88.04
2018-06-21T03:52:31.546Z,88.37
2018-06-21T03:53:31.545Z,87.99
2018-06-21T03:54:31.549Z,88.67
2018-06-21T03:55:31.555Z,88.61
2018-06-21T03:56:31.555Z,88.32
2018-06-21T03:57:31.557Z,88.37
2018-06-21T03:58:31.557Z,88.27
2018-06-21T03:59:31.564Z,88.31
2018-06-21T04:00:31.565Z,87.82
2018-06-21T04:01:31.568Z,87.24
2018-06-21T04:02:31.570Z,86.80
2018-06-21T04:03:31.576Z,86.46
2018-06-21T04:04:31.576Z,86.02
2018-06-21T04:05:31.583Z,85.83
2018-06-21T04:06:31.583Z,86.22
2018-06-21T04:07:31.588Z,86.41
2018-06-21T04:08:31.588Z,86.80
2018-06-21T04:09:31.590Z,86.46
2018-06-21T04:10:31.596Z,85.93
2018-06-21T04:11:31.601Z,86.99
2018-06-21T04:12:31.603Z,86.61
2018-06-21T04:13:31.605Z,87.30
2018-06-21T04:14:31.609Z,88.56
2018-06-21T04:15:31.614Z,88.17
2018-06-21T04:16:31.615Z,88.12
2018-06-21T04:17:31.688Z,87.96
2018-06-21T04:18:31.624Z,86.50
2018-06-21T04:19:31.628Z,85.33
2018-06-21T04:20:31.633Z,85.38
2018-06-21T04:21:31.638Z,84.89
2018-06-21T04:22:31.637Z,84.31
2018-06-21T04:23:31.641Z,83.82
2018-06-21T04:24:31.645Z,83.09
2018-06-21T04:25:31.649Z,81.96
2018-06-21T04:26:31.653Z,82.40
2018-06-21T04:27:31.655Z,82.37
2018-06-21T04:28:31.659Z,82.95
2018-06-21T04:29:31.665Z,82.21
2018-06-21T04:30:31.669Z,82.25
2018-06-21T04:31:31.674Z,80.38
2018-06-21T04:32:31.682Z,79.22
2018-06-21T04:33:31.682Z,80.25
2018-06-21T04:34:31.686Z,80.56
2018-06-21T04:35:31.690Z,80.60
2018-06-21T04:36:31.696Z,79.80
2018-06-21T04:37:31.700Z,78.58
2018-06-21T04:38:31.711Z,77.00
2018-06-21T04:39:31.707Z,75.53
2018-06-21T04:40:31.712Z,73.03
2018-06-21T04:41:31.720Z,72.33
2018-06-21T04:42:31.723Z,71.09
2018-06-21T04:43:31.729Z,69.37
2018-06-21T04:44:31.730Z,67.80
2018-06-21T04:45:31.737Z,67.41
2018-06-21T04:46:31.740Z,67.64
2018-06-21T04:47:31.747Z,66.37
2018-06-21T04:48:31.755Z,65.69
2018-06-21T04:49:31.761Z,65.62
2018-06-21T04:50:31.766Z,64.94
2018-06-21T04:51:31.767Z,64.09
2018-06-21T04:52:31.773Z,63.60
2018-06-21T04:53:31.780Z,63.67
2018-06-21T04:54:31.782Z,63.79
2018-06-21T04:55:31.788Z,63.40
2018-06-21T04:56:31.797Z,63.43
2018-06-21T04:57:31.798Z,61.99
2018-06-21T04:58:31.804Z,60.69
2018-06-21T04:59:31.811Z,61.15
2018-06-21T05:00:31.815Z,61.28
2018-06-21T05:01:31.821Z,61.02
2018-06-21T05:02:31.827Z,61.38
2018-06-21T05:03:31.833Z,61.64
2018-06-21T05:04:31.838Z,60.86
2018-06-21T05:05:31.844Z,62.13
2018-06-21T05:06:31.851Z,60.89
2018-06-21T05:07:31.856Z,61.21
2018-06-21T05:08:31.858Z,60.55
2018-06-21T05:09:31.868Z,59.53
2018-06-21T05:10:31.874Z,58.19
2018-06-21T05:11:31.879Z,58.12
2018-06-21T05:12:31.885Z,56.74
2018-06-21T05:13:31.889Z,57.03
2018-06-21T05:14:31.899Z,58.11
2018-06-21T05:15:31.906Z,58.26
2018-06-21T05:16:31.909Z,59.08
2018-06-21T05:17:31.915Z,59.35
2018-06-21T05:18:31.923Z,58.33
2018-06-21T05:19:31.928Z,57.35
2018-06-21T05:20:31.934Z,57.93
2018-06-21T05:21:31.944Z,59.64
2018-06-21T05:22:31.948Z,59.58
2018-06-21T05:23:31.950Z,60.02
2018-06-21T05:24:31.958Z,61.77
2018-06-21T05:25:31.968Z,63.54
2018-06-21T05:26:31.975Z,62.46
2018-06-21T05:27:31.981Z,63.12
2018-06-21T05:28:31.984Z,62.00
2018-06-21T05:29:31.994Z,63.15
2018-06-21T05:30:32.000Z,63.38
2018-06-21T05:31:32.008Z,64.22
2018-06-21T05:32:32.016Z,64.81
2018-06-21T05:33:32.020Z,65.53
2018-06-21T05:34:32.022Z,67.64
2018-06-21T05:35:32.035Z,68.58
2018-06-21T05:36:32.041Z,68.90
2018-06-21T05:37:32.070Z,68.97
2018-06-21T05:38:32.056Z,68.97
2018-06-21T05:39:32.066Z,68.32
2018-06-21T05:40:32.068Z,68.23
2018-06-21T05:41:32.076Z,66.93
2018-06-21T05:42:32.083Z,64.12
2018-06-21T05:43:32.090Z,62.23
2018-06-21T05:44:32.098Z,61.41
2018-06-21T05:45:32.104Z,62.92
2018-06-21T05:46:32.117Z,64.51
2018-06-21T05:47:32.120Z,65.20
2018-06-21T05:48:32.122Z,65.95
2018-06-21T05:49:32.134Z,67.32
2018-06-21T05:50:32.140Z,66.89
2018-06-21T05:51:32.147Z,66.83
2018-06-21T05:52:32.153Z,64.58
2018-06-21T05:53:32.163Z,63.15
2018-06-21T05:54:32.164Z,62.59
2018-06-21T05:55:32.173Z,60.57
2018-06-21T05:56:32.179Z,60.53
2018-06-21T05:57:32.188Z,62.53
2018-06-21T05:58:32.191Z,63.18
2018-06-21T05:59:32.198Z,61.51
2018-06-21T06:00:32.203Z,59.77
2018-06-21T06:01:32.210Z,57.81
2018-06-21T06:02:32.218Z,59.28
2018-06-21T06:03:32.228Z,57.08
2018-06-21T06:04:32.233Z,56.13
2018-06-21T06:05:32.240Z,55.95
2018-06-21T06:06:32.247Z,55.91
2018-06-21T06:07:32.254Z,57.53
2018-06-21T06:08:32.313Z,60.05
2018-06-21T06:09:32.269Z,59.16
2018-06-21T06:10:32.277Z,56.79
2018-06-21T06:11:32.284Z,55.93
2018-06-21T06:12:32.289Z,55.92
2018-06-21T06:13:32.300Z,57.12
2018-06-21T06:14:32.305Z,56.54
2018-06-21T06:15:32.313Z,57.43
2018-06-21T06:16:32.319Z,61.13
2018-06-21T06:17:32.327Z,62.66
2018-06-21T06:18:32.339Z,63.28
2018-06-21T06:19:32.343Z,60.96
2018-06-21T06:20:32.353Z,61.45
2018-06-21T06:21:32.359Z,62.89
2018-06-21T06:22:32.365Z,63.18
2018-06-21T06:23:32.373Z,62.99
2018-06-21T06:24:32.384Z,63.80
2018-06-21T06:25:32.388Z,64.29
2018-06-21T06:26:32.395Z,61.12
2018-06-21T06:27:32.405Z,59.98
2018-06-21T06:28:32.456Z,57.42
2018-06-21T06:29:32.417Z,56.01
2018-06-21T06:30:32.430Z,55.15
2018-06-21T06:31:32.433Z,54.46
2018-06-21T06:32:32.440Z,56.90
2018-06-21T06:33:32.451Z,57.93
2018-06-21T06:34:32.458Z,59.96
2018-06-21T06:35:32.463Z,58.94
2018-06-21T06:36:32.471Z,60.28
2018-06-21T06:37:32.477Z,59.72
2018-06-21T06:38:32.491Z,60.86
2018-06-21T06:39:32.496Z,59.88
2018-06-21T06:40:32.669Z,59.77
2018-06-21T06:41:32.509Z,59.92
2018-06-21T06:42:32.518Z,59.55
2018-06-21T06:43:32.526Z,56.83
2018-06-21T06:44:32.534Z,54.27
2018-06-21T06:45:32.542Z,53.63
2018-06-21T06:46:32.550Z,53.87
2018-06-21T06:47:32.558Z,55.00
2018-06-21T06:48:32.569Z,55.00
2018-06-21T06:49:32.579Z,55.24
2018-06-21T06:50:32.584Z,56.81
2018-06-21T06:51:32.594Z,58.51
2018-06-21T06:52:32.599Z,59.54
2018-06-21T06:53:32.618Z,60.38
2018-06-21T06:54:32.723Z,60.70
2018-06-21T06:55:32.624Z,57.53
2018-06-21T06:56:32.632Z,57.15
2018-06-21T06:57:32.639Z,55.32
2018-06-21T06:58:32.650Z,54.36
2018-06-21T06:59:32.654Z,55.29
2018-06-21T07:00:32.667Z,54.46
2018-06-21T07:01:32.675Z,54.46
2018-06-21T07:02:32.683Z,55.82
2018-06-21T07:03:32.698Z,55.19
2018-06-21T07:04:32.703Z,53.80
2018-06-21T07:05:32.710Z,51.52
2018-06-21T07:06:32.716Z,52.72
2018-06-21T07:07:32.727Z,52.35
2018-06-21T07:08:32.870Z,51.69
2018-06-21T07:09:32.744Z,53.43
2018-06-21T07:10:32.754Z,52.69
2018-06-21T07:11:32.761Z,51.96
2018-06-21T07:12:32.769Z,51.86
2018-06-21T07:13:32.780Z,51.86
2018-06-21T07:14:32.852Z,51.59
2018-06-21T07:15:32.799Z,51.15
2018-06-21T07:16:32.807Z,51.47
2018-06-21T07:17:32.819Z,51.81
2018-06-21T07:18:32.827Z,52.59
2018-06-21T07:19:32.836Z,52.62
2018-06-21T07:20:32.845Z,52.86
2018-06-21T07:21:32.861Z,53.92
2018-06-21T07:22:32.866Z,53.85
2018-06-21T07:23:32.873Z,55.04
2018-06-21T07:24:32.886Z,54.85
2018-06-21T07:25:32.891Z,53.77
2018-06-21T07:26:32.902Z,52.82
2018-06-21T07:27:32.912Z,53.92
2018-06-21T07:28:32.988Z,53.96
2018-06-21T07:29:32.940Z,56.47
2018-06-21T07:30:32.942Z,57.48
2018-06-21T07:31:32.952Z,58.26
2018-06-21T07:32:32.968Z,57.60
2018-06-21T07:33:33.019Z,57.50
2018-06-21T07:34:32.976Z,59.14
2018-06-21T07:35:32.987Z,0.00
2018-06-21T07:36:32.994Z,58.98
2018-06-21T07:37:33.005Z,59.67
2018-06-21T07:38:33.016Z,60.03
2018-06-21T07:39:33.022Z,0.00
2018-06-21T07:40:33.029Z,0.00
2018-06-21T07:41:33.038Z,0.00
2018-06-21T07:42:33.050Z,59.67
2018-06-21T07:43:33.057Z,59.47
2018-06-21T07:44:33.067Z,59.01
2018-06-21T07:45:33.076Z,58.62
2018-06-21T07:46:33.084Z,0.00
2018-06-21T07:47:33.094Z,58.23
2018-06-21T07:48:33.104Z,59.01
2018-06-21T07:49:33.112Z,60.81
2018-06-21T07:50:33.120Z,59.86
2018-06-21T07:51:33.132Z,58.87
2018-06-21T07:52:33.137Z,56.61
2018-06-21T07:53:33.147Z,55.14
2018-06-21T07:54:33.159Z,54.03
2018-06-21T07:55:33.165Z,55.04
2018-06-21T07:56:33.176Z,55.80
2018-06-21T07:57:33.184Z,56.85
2018-06-21T07:58:33.193Z,55.99
2018-06-21T07:59:33.202Z,55.87
2018-06-21T08:00:33.241Z,55.87
2018-06-21T08:01:33.220Z,55.80
2018-06-21T08:02:33.229Z,56.06
2018-06-21T08:03:33.242Z,55.65
2018-06-21T08:04:33.248Z,57.42
2018-06-21T08:05:33.258Z,58.23
2018-06-21T08:06:33.307Z,58.99
2018-06-21T08:07:33.276Z,62.28
2018-06-21T08:08:33.284Z,61.20
2018-06-21T08:09:33.295Z,60.47
2018-06-21T08:10:33.306Z,58.16
2018-06-21T08:11:33.323Z,56.56
2018-06-21T08:12:33.323Z,55.90
2018-06-21T08:13:33.331Z,57.31
2018-06-21T08:14:33.342Z,57.52
2018-06-21T08:15:33.351Z,58.30
2018-06-21T08:16:33.359Z,58.59
2018-06-21T08:17:33.369Z,59.22
2018-06-21T08:18:33.377Z,59.74
2018-06-21T08:19:33.386Z,0.00
2018-06-21T08:20:33.394Z,61.43
2018-06-21T08:21:33.405Z,60.49
2018-06-21T08:22:33.416Z,0.00
2018-06-21T08:23:33.424Z,0.00
2018-06-21T08:24:33.430Z,60.78
2018-06-21T08:25:33.437Z,0.00
2018-06-21T08:26:33.446Z,0.00
2018-06-21T08:27:33.460Z,0.00
2018-06-21T08:28:33.465Z,0.00
2018-06-21T08:29:33.481Z,0.00
2018-06-21T08:30:33.481Z,0.00
2018-06-21T08:31:33.492Z,0.00
2018-06-21T08:32:33.503Z,0.00
2018-06-21T08:33:33.512Z,0.00
2018-06-21T08:34:33.517Z,0.00
2018-06-21T08:35:33.524Z,0.00
2018-06-21T08:36:33.534Z,0.00
2018-06-21T08:37:33.543Z,0.00
2018-06-21T08:38:33.552Z,0.00
2018-06-21T08:39:33.559Z,0.00
2018-06-21T08:40:33.569Z,0.00
2018-06-21T08:41:33.576Z,0.00
2018-06-21T08:42:33.587Z,0.00
2018-06-21T08:43:33.601Z,0.00
2018-06-21T08:44:33.605Z,0.00
2018-06-21T08:45:33.611Z,0.00
2018-06-21T08:46:33.619Z,0.00
2018-06-21T08:47:33.628Z,0.00
2018-06-21T08:48:33.639Z,0.00
2018-06-21T08:49:33.647Z,63.09
2018-06-21T08:50:33.653Z,62.41
2018-06-21T08:51:33.662Z,60.88
2018-06-21T08:52:33.675Z,58.92
2018-06-21T08:53:33.679Z,58.58
2018-06-21T08:54:33.687Z,0.00
2018-06-21T08:55:33.698Z,0.00
2018-06-21T08:56:33.705Z,0.00
2018-06-21T08:57:33.711Z,0.00
2018-06-21T08:58:33.722Z,53.35
2018-06-21T08:59:33.729Z,0.00
2018-06-21T09:00:33.740Z,54.17
2018-06-21T09:01:33.750Z,55.77
2018-06-21T09:02:33.766Z,54.25
2018-06-21T09:03:33.771Z,52.69
2018-06-21T09:04:33.778Z,53.18
2018-06-21T09:05:33.786Z,52.89
2018-06-21T09:06:33.795Z,0.00
2018-06-21T09:07:33.806Z,0.00
2018-06-21T09:08:33.810Z,0.00
2018-06-21T09:09:33.832Z,53.67
2018-06-21T09:10:33.833Z,54.03
2018-06-21T09:11:33.841Z,54.91
2018-06-21T09:12:33.849Z,55.47
2018-06-21T09:13:33.860Z,54.96
2018-06-21T09:14:33.868Z,56.93
2018-06-21T09:15:33.878Z,57.52
2018-06-21T09:16:33.883Z,0.00
2018-06-21T09:17:33.892Z,0.00
2018-06-21T09:18:33.901Z,59.64
2018-06-21T09:19:33.911Z,58.37
2018-06-21T09:20:33.920Z,58.59
2018-06-21T09:21:33.927Z,59.05
2018-06-21T09:22:33.935Z,0.00
2018-06-21T09:23:33.943Z,0.00
2018-06-21T09:24:33.951Z,0.00
2018-06-21T09:25:33.962Z,59.74
2018-06-21T09:26:33.968Z,58.40
2018-06-21T09:27:33.975Z,59.38
2018-06-21T09:28:33.983Z,59.38
2018-06-21T09:29:33.990Z,59.28
2018-06-21T09:30:33.999Z,59.96
2018-06-21T09:31:34.004Z,59.93
2018-06-21T09:32:34.017Z,58.07
2018-06-21T09:33:34.023Z,59.15
2018-06-21T09:34:34.031Z,0.00
2018-06-21T09:35:34.038Z,0.00
2018-06-21T09:36:34.046Z,0.00
2018-06-21T09:37:34.052Z,0.00
2018-06-21T09:38:34.064Z,59.61
2018-06-21T09:39:34.066Z,0.00
2018-06-21T09:40:34.080Z,59.41
2018-06-21T09:41:34.087Z,58.83
2018-06-21T09:42:34.093Z,59.61
2018-06-21T09:43:34.097Z,59.41
2018-06-21T09:44:34.108Z,59.41
2018-06-21T09:45:34.114Z,59.15
2018-06-21T09:46:34.410Z,58.56
2018-06-21T09:47:34.134Z,57.59
2018-06-21T09:48:34.139Z,58.17
2018-06-21T09:49:34.147Z,58.27
2018-06-21T09:50:34.158Z,58.07
2018-06-21T09:51:34.173Z,57.88
2018-06-21T09:52:34.192Z,59.25
2018-06-21T09:53:34.189Z,57.62
2018-06-21T09:54:34.187Z,56.97
2018-06-21T09:55:34.194Z,57.20
2018-06-21T09:56:34.202Z,57.65
2018-06-21T09:57:34.208Z,57.85
2018-06-21T09:58:34.220Z,58.99
2018-06-21T09:59:34.231Z,59.45
2018-06-21T10:00:34.232Z,59.42
2018-06-21T10:01:34.246Z,59.52
2018-06-21T10:02:34.247Z,59.78
2018-06-21T10:03:34.255Z,60.27
2018-06-21T10:04:34.264Z,60.63
2018-06-21T10:05:34.276Z,61.15
2018-06-21T10:06:34.277Z,61.05
2018-06-21T10:07:34.294Z,60.66
2018-06-21T10:08:34.292Z,60.78
2018-06-21T10:09:34.304Z,61.27
2018-06-21T10:10:34.307Z,60.85
2018-06-21T10:11:34.316Z,61.73
2018-06-21T10:12:34.319Z,61.41
2018-06-21T10:13:34.329Z,61.70
2018-06-21T10:14:34.338Z,61.96
2018-06-21T10:15:34.342Z,62.16
2018-06-21T10:16:34.350Z,62.45
2018-06-21T10:17:34.357Z,62.81
2018-06-21T10:18:34.371Z,63.00
2018-06-21T10:19:34.383Z,0.00
2018-06-21T10:20:34.419Z,0.00
2018-06-21T10:21:34.394Z,0.00
2018-06-21T10:22:34.395Z,0.00
2018-06-21T10:23:34.408Z,0.00
2018-06-21T10:24:34.405Z,0.00
2018-06-21T10:25:34.422Z,0.00
2018-06-21T10:26:34.420Z,64.43
2018-06-21T10:27:34.425Z,0.00
2018-06-21T10:28:34.432Z,0.00
2018-06-21T10:29:34.437Z,0.00
2018-06-21T10:30:34.444Z,0.00
2018-06-21T10:31:34.449Z,0.00
2018-06-21T10:32:34.456Z,76.84
2018-06-21T10:33:34.461Z,83.81
2018-06-21T10:34:34.468Z,87.24
2018-06-21T10:35:34.475Z,88.31
2018-06-21T10:36:34.477Z,88.17
2018-06-21T10:37:34.487Z,87.41
2018-06-21T10:38:34.492Z,83.42
2018-06-21T10:39:34.496Z,81.07
2018-06-21T10:40:34.498Z,80.11
2018-06-21T10:41:34.504Z,79.44
2018-06-21T10:42:34.529Z,77.86
2018-06-21T10:43:34.519Z,76.61
2018-06-21T10:44:34.510Z,75.27
2018-06-21T10:45:34.518Z,77.38
2018-06-21T10:46:34.520Z,74.79
2018-06-21T10:47:34.527Z,74.30
2018-06-21T10:48:34.529Z,75.65
2018-06-21T10:49:34.539Z,74.55
2018-06-21T10:50:34.535Z,78.50
2018-06-21T10:51:34.544Z,76.67
2018-06-21T10:52:34.542Z,76.48
2018-06-21T10:53:34.545Z,75.42
2018-06-21T10:54:34.549Z,75.62
2018-06-21T10:55:34.551Z,76.09
2018-06-21T10:56:34.564Z,76.00
2018-06-21T10:57:34.558Z,76.57
2018-06-21T10:58:34.559Z,75.52
2018-06-21T10:59:34.563Z,78.69
2018-06-21T11:00:34.565Z,76.29
2018-06-21T11:01:34.568Z,78.21
2018-06-21T11:02:34.573Z,79.65
2018-06-21T11:03:34.573Z,77.96
2018-06-21T11:04:34.575Z,80.61
2018-06-21T11:05:34.577Z,80.04
2018-06-21T11:06:34.579Z,81.48
2018-06-21T11:07:34.583Z,80.04
2018-06-21T11:08:34.595Z,82.49
2018-06-21T11:09:34.587Z,79.61
2018-06-21T11:10:34.589Z,81.15
2018-06-21T11:11:34.600Z,80.19
2018-06-21T11:12:34.591Z,79.61
2018-06-21T11:13:34.600Z,80.57
2018-06-21T11:14:34.596Z,80.66
2018-06-21T11:15:34.595Z,80.86
2018-06-21T11:16:34.603Z,80.96
2018-06-21T11:17:34.596Z,82.16
2018-06-21T11:18:34.603Z,81.01
2018-06-21T11:19:34.604Z,80.91
2018-06-21T11:20:34.611Z,81.30
2018-06-21T11:21:34.607Z,81.59
2018-06-21T11:22:34.612Z,81.74
2018-06-21T11:23:34.612Z,80.87
2018-06-21T11:24:34.612Z,81.45
2018-06-21T11:25:34.614Z,80.78
2018-06-21T11:26:34.617Z,80.49
2018-06-21T11:27:34.618Z,81.07
2018-06-21T11:28:34.619Z,81.64
2018-06-21T11:29:34.621Z,80.78
2018-06-21T11:30:34.622Z,80.20
2018-06-21T11:31:34.622Z,80.49
2018-06-21T11:32:34.624Z,80.68
2018-06-21T11:33:34.631Z,81.35
2018-06-21T11:34:34.626Z,80.53
2018-06-21T11:35:34.628Z,81.93
2018-06-21T11:36:34.629Z,79.72
2018-06-21T11:37:34.628Z,79.44
2018-06-21T11:38:34.631Z,82.12
2018-06-21T11:39:34.633Z,80.78
2018-06-21T11:40:34.631Z,81.64
2018-06-21T11:41:34.637Z,81.74
2018-06-21T11:42:34.637Z,83.33
2018-06-21T11:43:34.639Z,81.41
2018-06-21T11:44:34.638Z,80.35
2018-06-21T11:45:34.644Z,79.59
2018-06-21T11:46:34.641Z,80.35
2018-06-21T11:47:34.641Z,81.60
2018-06-21T11:48:34.646Z,79.78
2018-06-21T11:49:34.643Z,80.07
2018-06-21T11:50:34.643Z,79.30
2018-06-21T11:51:34.645Z,79.30
2018-06-21T11:52:34.646Z,79.59
2018-06-21T11:53:34.646Z,79.59
2018-06-21T11:54:34.647Z,79.21
2018-06-21T11:55:34.647Z,78.44
2018-06-21T11:56:34.646Z,78.25
2018-06-21T11:57:34.651Z,76.57
2018-06-21T11:58:34.650Z,76.10
2018-06-21T11:59:34.649Z,75.90
2018-06-21T12:00:34.650Z,75.33
2018-06-21T12:01:34.650Z,74.76
2018-06-21T12:02:34.655Z,73.90
2018-06-21T12:03:34.653Z,74.47
2018-06-21T12:04:34.655Z,73.86
2018-06-21T12:05:34.657Z,73.38
2018-06-21T12:06:34.656Z,71.17
2018-06-21T12:07:34.655Z,72.71
2018-06-21T12:08:34.656Z,71.27
2018-06-21T12:09:34.655Z,71.17
2018-06-21T12:10:34.655Z,68.55
2018-06-21T12:11:34.656Z,66.45
2018-06-21T12:12:34.660Z,65.97
2018-06-21T12:13:34.655Z,65.97
2018-06-21T12:14:34.655Z,65.11
2018-06-21T12:15:34.657Z,66.16
2018-06-21T12:16:34.656Z,64.63
2018-06-21T12:17:34.656Z,64.82
2018-06-21T12:18:34.657Z,64.25
2018-06-21T12:19:34.659Z,64.15
2018-06-21T12:20:34.657Z,64.34
2018-06-21T12:21:34.661Z,64.25
2018-06-21T12:22:34.655Z,65.11
2018-06-21T12:23:34.657Z,65.11
2018-06-21T12:24:34.656Z,65.20
2018-06-21T12:25:34.658Z,65.68
2018-06-21T12:26:34.658Z,64.72
2018-06-21T12:27:34.660Z,62.33
2018-06-21T12:28:34.657Z,62.33
2018-06-21T12:29:34.659Z,63.96
2018-06-21T12:30:34.658Z,63.76
2018-06-21T12:31:34.660Z,63.57
2018-06-21T12:32:34.656Z,64.43
2018-06-21T12:33:34.663Z,63.39
2018-06-21T12:34:34.658Z,63.29
2018-06-21T12:35:34.659Z,63.29
2018-06-21T12:36:34.657Z,63.67
2018-06-21T12:37:34.655Z,64.63
2018-06-21T12:38:34.657Z,64.37
2018-06-21T12:39:34.657Z,64.09
2018-06-21T12:40:34.657Z,64.43
2018-06-21T12:41:34.657Z,66.74
2018-06-21T12:42:34.657Z,62.33
2018-06-21T12:43:34.666Z,64.53
2018-06-21T12:44:34.664Z,62.90
2018-06-21T12:45:34.658Z,65.30
2018-06-21T12:46:34.654Z,65.30
2018-06-21T12:47:34.658Z,64.82
2018-06-21T12:48:34.659Z,64.18
2018-06-21T12:49:34.658Z,66.19
2018-06-21T12:50:34.659Z,67.15
2018-06-21T12:51:34.659Z,67.63
2018-06-21T12:52:34.688Z,68.78
2018-06-21T12:53:34.658Z,69.54
2018-06-21T12:54:34.659Z,69.96